Carolina, PR (00988)

12:00 PM AST on August 29, 2014 (GMT -0400)
Manejo de Emergencias | Change Station
CLOSE
Current Station
Personal Weather Station
Location: Carolina, PR
Elevation: 40 ft
Nearby Weather Stations

Elev 40 ft 18.38 °N, 65.97 °W | Updated 6 minutes ago

Mostly Cloudy
Mostly Cloudy
82.9 °F
Feels Like 92 °F
N
3.0
Wind Variable Wind from SW
Gusts 7.0 mph

Today
High -- | Low -- °F
--% Chance of Precip.
Yesterday
High -- | Low -- °F
Precip. -- in
6:08 AM 6:40 PM
Waxing Crescent, 15% visible
Pressure 30.04 in
Visibility 10.0 miles
Clouds Few 2200 ft
Scattered Clouds 3500 ft
Mostly Cloudy 12000 ft
Heat Index 92 °F
Dew Point 78 °F
Humidity 84%
Rainfall -999.00 in
Snow Depth Not available.
UV 7 out of 12
Pollen Not available.
Air Quality Not available.
Flu Activity Not available.
METAR TJSJ 291556Z 07007KT 10SM FEW022 SCT035TCU BKN120 29/25 A3005 RMK AO2 RAB54E56 SLP173 TCU NE E SE SW VCSH NE E SE SW P0000 T02890250

More Conditions Fewer Conditions

Pressure 30.04 in
Visibility 10.0 miles
Clouds Few 2200 ft
Scattered Clouds 3500 ft
Mostly Cloudy 12000 ft
Heat Index 92 °F
Dew Point 78 °F
Humidity 84%
Rainfall -999.00 in
Snow Depth Not available.
UV 7 out of 12
Pollen Not available.
Air Quality Not available.
Flu Activity Not available.
METAR TJSJ 291556Z 07007KT 10SM FEW022 SCT035TCU BKN120 29/25 A3005 RMK AO2 RAB54E56 SLP173 TCU NE E SE SW VCSH NE E SE SW P0000 T02890250

More Conditions Fewer Conditions

10-Day Weather Forecast

Almanac

Astronomy

Aug. 29, 2014 Rise Set
Actual Time 6:08 AM AST 6:40 PM AST
Civil Twilight 5:46 AM AST 7:02 PM AST
Nautical Twilight 5:20 AM AST 7:28 PM AST
Astronomical Twilight 4:54 AM AST 7:54 PM AST
Moon 9:17 AM AST 9:15 PM AST
Length of Visible Light 13h 16m
Length of Day
12h 31m
Tomorrow will be 1m 0s shorter.
Waxing Crescent, 15% of the Moon is Illuminated
Today
Waxing Crescent
Sep 2
First Quarter
Sep 8
Full
Sep 15
Last Quarter
Sep 24
New

Community

WunderPhotos

Upload Photos

1,748,270 photos uploaded!

Nearby

Snow Depth

Station Depth Elevation
No new snow has been reported.

Earthquake Activity

City Distance Mag. Time & Date
No recent earthquake activity has been reported nearby.
Minimum magnitude displayed is 2.5.

Coastal Water Temperatures

Place Temperature
San Juan, PR 84.9 °F
Mayaguez, PR 84.9 °F
Esperanza, PR 84.0 °F

Nearby Weather Stations